Time;durP1;ratioP1;P1;durP2;ratioP2;P2;SDS_P1;SDS_P2;PMS_P1;PMS_P2;Temp;Humidity;BMP_temperature;BMP_pressure;BME280_temperature;BME280_humidity;BME280_pressure;Samples;Min_cycle;Max_cycle;Signal;HPM_P1;HPM_P2
2023/07/06 00:01:00;;;;;;;13.07;5.63;;;;;;;;;;4868201;29;20044;-76
2023/07/06 00:03:26;;;;;;;10.40;5.28;;;;;;;;;;4868494;29;20950;-75
2023/07/06 00:05:52;;;;;;;12.40;5.15;;;;;;;;;;4870680;29;20080;-75
2023/07/06 00:08:18;;;;;;;13.45;5.13;;;;;;;;;;4886731;29;20064;-75
2023/07/06 00:10:45;;;;;;;14.82;5.03;;;;;;;;;;4867910;29;20048;-75
2023/07/06 00:13:11;;;;;;;9.40;5.13;;;;;;;;;;4884627;29;20445;-75
2023/07/06 00:15:38;;;;;;;16.38;5.72;;;;;;;;;;4882304;29;20060;-75
2023/07/06 00:18:04;;;;;;;10.25;5.10;;;;;;;;;;4882522;29;20048;-75
2023/07/06 00:20:32;;;;;;;12.00;5.47;;;;;;;;;;4866118;29;20097;-76
2023/07/06 00:22:58;;;;;;;15.10;5.00;;;;;;;;;;4883051;29;20061;-76
2023/07/06 00:25:28;;;;;;;12.82;5.32;;;;;;;;;;4882992;29;20091;-74
2023/07/06 00:27:54;;;;;;;8.50;4.88;;;;;;;;;;4881946;29;22296;-75
2023/07/06 00:30:40;;;;;;;10.15;5.97;;;;;;;;;;4873278;29;20044;-76
2023/07/06 00:33:07;;;;;;;11.63;5.30;;;;;;;;;;4865024;29;20057;-75
2023/07/06 00:35:34;;;;;;;11.07;6.28;;;;;;;;;;4874697;29;20097;-75
2023/07/06 00:38:00;;;;;;;16.50;5.68;;;;;;;;;;4884441;29;20055;-77
2023/07/06 00:40:33;;;;;;;17.50;5.93;;;;;;;;;;4880665;29;20066;-74
2023/07/06 00:42:59;;;;;;;12.20;5.78;;;;;;;;;;4883577;29;21434;-74
2023/07/06 00:45:26;;;;;;;11.98;5.70;;;;;;;;;;4882304;29;20127;-75
2023/07/06 00:47:59;;;;;;;11.27;6.30;;;;;;;;;;4879718;29;20211;-75
2023/07/06 00:50:28;;;;;;;14.15;6.78;;;;;;;;;;4873191;29;20038;-75
2023/07/06 00:53:03;;;;;;;14.82;6.55;;;;;;;;;;4885199;29;20107;-75
2023/07/06 00:55:31;;;;;;;12.07;5.60;;;;;;;;;;4868944;29;20059;-75
2023/07/06 00:58:01;;;;;;;12.70;6.38;;;;;;;;;;4884916;29;20134;-74
2023/07/06 01:00:27;;;;;;;9.15;6.25;;;;;;;;;;4885586;29;20055;-75
2023/07/06 01:02:56;;;;;;;13.93;6.82;;;;;;;;;;4886309;29;20059;-74
2023/07/06 01:05:24;;;;;;;11.63;6.78;;;;;;;;;;4866118;29;20464;-75
2023/07/06 01:07:51;;;;;;;7.95;5.70;;;;;;;;;;4886454;29;20045;-76
2023/07/06 01:10:17;;;;;;;8.80;5.95;;;;;;;;;;4881880;29;20040;-76
2023/07/06 01:12:43;;;;;;;13.65;5.57;;;;;;;;;;4882700;29;20176;-75
2023/07/06 01:15:10;;;;;;;8.93;5.78;;;;;;;;;;4871333;29;20051;-75
2023/07/06 01:17:45;;;;;;;14.07;5.65;;;;;;;;;;4867158;29;20091;-75
2023/07/06 01:20:30;;;;;;;16.13;6.38;;;;;;;;;;4867547;29;20103;-75
2023/07/06 01:23:06;;;;;;;13.93;6.65;;;;;;;;;;4884758;29;20143;-75
2023/07/06 01:25:38;;;;;;;11.27;6.47;;;;;;;;;;4885555;29;20044;-75
2023/07/06 01:28:32;;;;;;;19.10;6.13;;;;;;;;;;4883228;29;20712;-75
2023/07/06 01:31:21;;;;;;;12.93;6.47;;;;;;;;;;4882916;29;20092;-75
2023/07/06 01:33:52;;;;;;;13.48;6.50;;;;;;;;;;4884513;29;20584;-76
2023/07/06 01:36:57;;;;;;;10.80;6.45;;;;;;;;;;4887722;29;20075;-75
2023/07/06 01:39:26;;;;;;;9.77;6.70;;;;;;;;;;4745237;29;20047;-75
2023/07/06 01:42:13;;;;;;;9.75;6.55;;;;;;;;;;4760172;29;20051;-76
2023/07/06 01:44:41;;;;;;;12.57;7.05;;;;;;;;;;4840484;29;20088;-75
2023/07/06 01:47:08;;;;;;;13.55;6.85;;;;;;;;;;4893916;29;20140;-76
2023/07/06 01:49:35;;;;;;;11.88;7.45;;;;;;;;;;4878574;29;20035;-76
2023/07/06 01:52:10;;;;;;;12.10;7.20;;;;;;;;;;4876802;29;20128;-76
2023/07/06 01:54:41;;;;;;;13.88;7.95;;;;;;;;;;4886070;29;20140;-76
2023/07/06 01:57:13;;;;;;;13.07;8.38;;;;;;;;;;4884730;29;20108;-75
2023/07/06 01:59:46;;;;;;;16.48;8.68;;;;;;;;;;4881777;29;20053;-75
2023/07/06 02:02:14;;;;;;;14.25;7.75;;;;;;;;;;4891399;29;20174;-75
2023/07/06 02:04:43;;;;;;;18.20;8.50;;;;;;;;;;4888766;29;20087;-75
2023/07/06 02:07:10;;;;;;;17.05;8.48;;;;;;;;;;4886692;29;20043;-75
2023/07/06 02:09:43;;;;;;;15.90;8.77;;;;;;;;;;4883107;29;20131;-75
2023/07/06 02:12:12;;;;;;;13.77;8.77;;;;;;;;;;4880554;29;20091;-76
2023/07/06 02:14:38;;;;;;;16.88;10.27;;;;;;;;;;4855176;29;20198;-76
2023/07/06 02:17:06;;;;;;;16.75;9.60;;;;;;;;;;4868936;29;20059;-75
2023/07/06 02:19:35;;;;;;;14.30;9.70;;;;;;;;;;4869455;29;20044;-76
2023/07/06 02:22:04;;;;;;;26.05;10.75;;;;;;;;;;4866239;29;20052;-76
2023/07/06 02:24:34;;;;;;;16.60;9.77;;;;;;;;;;4870257;29;20044;-76
2023/07/06 02:27:02;;;;;;;17.40;9.73;;;;;;;;;;4879666;29;20048;-76
2023/07/06 02:29:28;;;;;;;16.08;9.40;;;;;;;;;;4863790;29;20045;-76
2023/07/06 02:31:54;;;;;;;20.02;10.00;;;;;;;;;;4878994;29;20485;-76
2023/07/06 02:34:25;;;;;;;20.45;9.93;;;;;;;;;;4896068;29;20067;-76
2023/07/06 02:36:55;;;;;;;17.27;9.98;;;;;;;;;;4883860;29;20060;-76
2023/07/06 02:39:24;;;;;;;25.65;10.85;;;;;;;;;;4862006;29;20155;-76
2023/07/06 02:41:56;;;;;;;18.52;10.35;;;;;;;;;;4880867;29;20055;-75
2023/07/06 02:44:22;;;;;;;16.50;11.23;;;;;;;;;;4869103;29;20074;-76
2023/07/06 02:46:48;;;;;;;18.52;10.55;;;;;;;;;;4870501;29;20040;-76
2023/07/06 02:49:18;;;;;;;19.85;11.30;;;;;;;;;;4884356;29;20052;-76
2023/07/06 02:51:46;;;;;;;23.33;10.75;;;;;;;;;;4879239;29;20044;-76
2023/07/06 02:54:15;;;;;;;23.35;11.30;;;;;;;;;;4864201;29;20052;-76
2023/07/06 02:56:41;;;;;;;17.10;10.65;;;;;;;;;;4879636;29;20064;-76
2023/07/06 02:59:08;;;;;;;28.13;11.55;;;;;;;;;;4864102;29;20060;-75
2023/07/06 03:01:34;;;;;;;20.27;11.35;;;;;;;;;;4880192;29;20103;-76
2023/07/06 03:04:01;;;;;;;19.95;11.68;;;;;;;;;;4888412;29;20489;-76
2023/07/06 03:06:27;;;;;;;23.27;11.70;;;;;;;;;;4895985;29;20055;-76
2023/07/06 03:08:54;;;;;;;22.17;11.35;;;;;;;;;;4871836;29;20044;-76
2023/07/06 03:11:20;;;;;;;21.73;12.68;;;;;;;;;;4879457;29;20040;-76
2023/07/06 03:13:46;;;;;;;23.95;12.63;;;;;;;;;;4862312;29;20056;-76
2023/07/06 03:16:14;;;;;;;22.20;11.88;;;;;;;;;;4875093;29;22204;-76
2023/07/06 03:18:40;;;;;;;18.48;11.73;;;;;;;;;;4878386;29;21958;-76
2023/07/06 03:21:06;;;;;;;20.00;12.32;;;;;;;;;;4877409;29;20048;-77
2023/07/06 03:23:32;;;;;;;21.20;11.90;;;;;;;;;;4863647;29;20055;-76
2023/07/06 03:25:59;;;;;;;25.27;12.93;;;;;;;;;;4876695;29;20048;-76
2023/07/06 03:28:25;;;;;;;30.20;12.93;;;;;;;;;;4865255;29;20047;-75
2023/07/06 03:30:55;;;;;;;20.80;12.65;;;;;;;;;;4878923;29;20130;-75
2023/07/06 03:33:21;;;;;;;21.15;12.30;;;;;;;;;;4879002;29;20158;-77
2023/07/06 03:35:47;;;;;;;24.02;12.02;;;;;;;;;;4880609;29;20624;-76
2023/07/06 03:38:13;;;;;;;26.08;12.88;;;;;;;;;;4880659;29;20073;-75
2023/07/06 03:40:39;;;;;;;20.92;12.02;;;;;;;;;;4877552;29;20137;-76
2023/07/06 03:43:06;;;;;;;18.90;12.07;;;;;;;;;;4877566;29;20055;-75
2023/07/06 03:45:32;;;;;;;19.08;11.68;;;;;;;;;;4876289;29;20068;-75
2023/07/06 03:47:59;;;;;;;18.85;12.10;;;;;;;;;;4861267;29;22232;-75
2023/07/06 03:50:26;;;;;;;18.15;12.57;;;;;;;;;;4869562;29;21792;-75
2023/07/06 03:52:52;;;;;;;17.55;11.48;;;;;;;;;;4862059;29;20126;-75
2023/07/06 03:55:19;;;;;;;25.58;12.80;;;;;;;;;;4878089;29;20758;-76
2023/07/06 03:57:46;;;;;;;18.55;11.57;;;;;;;;;;4857758;29;20533;-76
2023/07/06 04:00:23;;;;;;;21.20;12.10;;;;;;;;;;4879692;29;20073;-76
2023/07/06 04:02:51;;;;;;;20.15;11.77;;;;;;;;;;4879970;29;20056;-76
2023/07/06 04:05:19;;;;;;;18.35;12.32;;;;;;;;;;4869976;29;20075;-76
2023/07/06 04:07:45;;;;;;;20.13;11.93;;;;;;;;;;4874572;29;20041;-76
2023/07/06 04:10:12;;;;;;;17.60;12.90;;;;;;;;;;4878122;29;21162;-76
2023/07/06 04:12:38;;;;;;;17.92;11.60;;;;;;;;;;4861852;29;20048;-76
2023/07/06 04:15:06;;;;;;;17.35;11.95;;;;;;;;;;4877339;29;20564;-76
2023/07/06 04:17:32;;;;;;;23.65;12.35;;;;;;;;;;4876888;29;20120;-76
2023/07/06 04:19:58;;;;;;;19.60;10.77;;;;;;;;;;4877892;29;20048;-75
2023/07/06 04:22:25;;;;;;;24.60;11.93;;;;;;;;;;4883900;29;20049;-76
2023/07/06 04:24:51;;;;;;;22.67;11.50;;;;;;;;;;4882584;29;21956;-76
2023/07/06 04:27:17;;;;;;;27.25;11.75;;;;;;;;;;4875557;29;20065;-77
2023/07/06 04:29:44;;;;;;;27.90;12.13;;;;;;;;;;4891845;29;20044;-76
2023/07/06 04:32:10;;;;;;;23.02;13.52;;;;;;;;;;4880709;29;20643;-76
2023/07/06 04:34:39;;;;;;;18.33;10.98;;;;;;;;;;4879187;29;20150;-76
2023/07/06 04:37:07;;;;;;;18.88;10.45;;;;;;;;;;4878881;29;20060;-77
2023/07/06 04:39:36;;;;;;;17.77;11.65;;;;;;;;;;4875460;29;20163;-76
2023/07/06 04:42:03;;;;;;;16.80;11.35;;;;;;;;;;4857639;29;20055;-76
2023/07/06 04:44:29;;;;;;;22.48;10.85;;;;;;;;;;4861624;29;20048;-75
2023/07/06 04:46:59;;;;;;;18.98;11.07;;;;;;;;;;4875804;29;20170;-76
2023/07/06 04:49:25;;;;;;;19.83;10.82;;;;;;;;;;4864041;29;20052;-74
2023/07/06 04:51:51;;;;;;;21.10;10.55;;;;;;;;;;4882080;29;20083;-74
2023/07/06 04:54:17;;;;;;;16.77;10.77;;;;;;;;;;4861096;29;20083;-75
2023/07/06 04:56:44;;;;;;;18.20;9.20;;;;;;;;;;4876595;29;20776;-75
2023/07/06 04:59:10;;;;;;;15.15;10.65;;;;;;;;;;4878396;29;20412;-76
2023/07/06 05:01:36;;;;;;;19.20;10.55;;;;;;;;;;4869499;29;20883;-75
2023/07/06 05:04:02;;;;;;;19.60;10.52;;;;;;;;;;4875784;29;20041;-76
2023/07/06 05:06:28;;;;;;;18.13;10.05;;;;;;;;;;4877685;29;20048;-75
2023/07/06 05:08:54;;;;;;;17.00;10.57;;;;;;;;;;4881332;29;20056;-76
2023/07/06 05:11:20;;;;;;;12.18;8.77;;;;;;;;;;4880612;29;20127;-75
2023/07/06 05:13:46;;;;;;;21.20;9.65;;;;;;;;;;4882475;29;20127;-76
2023/07/06 05:16:13;;;;;;;15.30;10.60;;;;;;;;;;4881909;29;20153;-75
2023/07/06 05:18:39;;;;;;;16.88;10.40;;;;;;;;;;4881195;29;20174;-74
2023/07/06 05:21:05;;;;;;;12.75;10.07;;;;;;;;;;4871041;29;20053;-76
2023/07/06 05:23:31;;;;;;;18.13;10.18;;;;;;;;;;4885657;29;20036;-76
2023/07/06 05:26:03;;;;;;;18.10;9.68;;;;;;;;;;4886072;29;20097;-76
2023/07/06 05:28:29;;;;;;;22.42;10.60;;;;;;;;;;4875835;29;20067;-76
2023/07/06 05:30:56;;;;;;;22.13;10.52;;;;;;;;;;4885621;29;20053;-75
2023/07/06 05:33:22;;;;;;;17.65;10.48;;;;;;;;;;4882984;29;20068;-76
2023/07/06 05:35:48;;;;;;;18.05;10.55;;;;;;;;;;4886406;29;20052;-75
2023/07/06 05:38:14;;;;;;;17.55;10.55;;;;;;;;;;4884233;29;20773;-76
2023/07/06 05:40:41;;;;;;;15.55;10.50;;;;;;;;;;4869513;29;22029;-76
2023/07/06 05:43:08;;;;;;;21.33;10.35;;;;;;;;;;4886205;29;20127;-75
2023/07/06 05:45:34;;;;;;;20.92;11.55;;;;;;;;;;4877642;29;20135;-76
2023/07/06 05:48:01;;;;;;;22.10;10.68;;;;;;;;;;4883969;29;20072;-75
2023/07/06 05:50:27;;;;;;;17.38;11.35;;;;;;;;;;4867707;29;20576;-75
2023/07/06 05:52:53;;;;;;;25.40;11.52;;;;;;;;;;4887071;29;20099;-75
2023/07/06 05:55:19;;;;;;;19.70;11.50;;;;;;;;;;4886776;29;20059;-74
2023/07/06 05:57:46;;;;;;;18.77;11.75;;;;;;;;;;4877569;29;20056;-75
2023/07/06 06:00:13;;;;;;;21.85;10.90;;;;;;;;;;4885043;29;20705;-75
2023/07/06 06:02:44;;;;;;;21.90;12.25;;;;;;;;;;4883696;29;20137;-76
2023/07/06 06:05:13;;;;;;;18.88;11.32;;;;;;;;;;4889579;29;20056;-76
2023/07/06 06:07:40;;;;;;;17.13;11.27;;;;;;;;;;4883062;29;20115;-75
2023/07/06 06:10:06;;;;;;;16.13;11.23;;;;;;;;;;4882867;29;21997;-75
2023/07/06 06:12:34;;;;;;;19.67;10.95;;;;;;;;;;4883409;29;20533;-76
2023/07/06 06:15:00;;;;;;;19.63;11.00;;;;;;;;;;4883722;29;20063;-75
2023/07/06 06:17:29;;;;;;;19.92;11.45;;;;;;;;;;4885095;29;20056;-76
2023/07/06 06:19:55;;;;;;;18.05;11.52;;;;;;;;;;4883566;29;20119;-76
2023/07/06 06:22:22;;;;;;;26.42;11.18;;;;;;;;;;4868517;29;20048;-76
2023/07/06 06:24:48;;;;;;;21.48;11.52;;;;;;;;;;4883052;29;20104;-76
2023/07/06 06:27:15;;;;;;;23.83;12.35;;;;;;;;;;4885996;29;20131;-76
2023/07/06 06:29:45;;;;;;;26.88;12.35;;;;;;;;;;4886909;29;20044;-75
2023/07/06 06:32:12;;;;;;;23.63;11.20;;;;;;;;;;4895329;29;20513;-76
2023/07/06 06:34:39;;;;;;;19.35;11.82;;;;;;;;;;4888881;29;20136;-76
2023/07/06 06:37:05;;;;;;;22.85;11.85;;;;;;;;;;4904014;29;20048;-76
2023/07/06 06:39:32;;;;;;;25.77;11.68;;;;;;;;;;4887311;29;20056;-76
2023/07/06 06:42:00;;;;;;;23.25;12.75;;;;;;;;;;4895517;29;20036;-75
2023/07/06 06:44:28;;;;;;;21.05;11.52;;;;;;;;;;4895285;29;20497;-76
2023/07/06 06:46:56;;;;;;;26.05;12.27;;;;;;;;;;4891846;29;20138;-75
2023/07/06 06:49:23;;;;;;;23.60;12.43;;;;;;;;;;4889181;29;20500;-75
2023/07/06 06:51:49;;;;;;;28.42;11.98;;;;;;;;;;4881129;29;20135;-74
2023/07/06 06:54:15;;;;;;;23.77;12.07;;;;;;;;;;4881325;29;21282;-75
2023/07/06 06:56:42;;;;;;;15.05;11.15;;;;;;;;;;4885133;29;20052;-75
2023/07/06 06:59:11;;;;;;;23.27;11.15;;;;;;;;;;4863737;29;20044;-76
2023/07/06 07:01:38;;;;;;;16.77;10.02;;;;;;;;;;4866467;29;20035;-75
2023/07/06 07:04:04;;;;;;;20.90;11.52;;;;;;;;;;4880935;29;20056;-76
2023/07/06 07:06:30;;;;;;;19.50;9.88;;;;;;;;;;4881133;29;20052;-74
2023/07/06 07:08:57;;;;;;;20.45;10.15;;;;;;;;;;4866026;29;20063;-75
2023/07/06 07:11:24;;;;;;;20.90;10.98;;;;;;;;;;4871376;29;20059;-77
2023/07/06 07:13:51;;;;;;;19.80;10.32;;;;;;;;;;4866250;29;20048;-74
2023/07/06 07:16:19;;;;;;;16.75;10.20;;;;;;;;;;4884272;29;20465;-76
2023/07/06 07:18:45;;;;;;;24.27;10.38;;;;;;;;;;4871356;29;20131;-75
2023/07/06 07:21:12;;;;;;;18.65;10.25;;;;;;;;;;4880734;29;20044;-75
2023/07/06 07:23:45;;;;;;;26.50;9.95;;;;;;;;;;4880907;29;20041;-75
2023/07/06 07:26:12;;;;;;;16.77;8.43;;;;;;;;;;4882177;29;21099;-76
2023/07/06 07:28:38;;;;;;;21.48;9.57;;;;;;;;;;4866935;29;20064;-75
2023/07/06 07:31:07;;;;;;;18.75;9.00;;;;;;;;;;4878149;29;20135;-75
2023/07/06 07:33:34;;;;;;;23.63;7.95;;;;;;;;;;4882480;29;20110;-75
2023/07/06 07:36:02;;;;;;;17.35;7.90;;;;;;;;;;4888909;29;20207;-76
2023/07/06 07:38:28;;;;;;;16.92;7.38;;;;;;;;;;4883574;29;20050;-76
2023/07/06 07:40:56;;;;;;;15.25;6.40;;;;;;;;;;4883368;29;20055;-76
2023/07/06 07:43:25;;;;;;;13.65;6.18;;;;;;;;;;4882607;29;20060;-75
2023/07/06 07:46:03;;;;;;;18.63;5.85;;;;;;;;;;4866726;29;20044;-75
2023/07/06 07:48:32;;;;;;;12.48;5.90;;;;;;;;;;4882576;29;20035;-75
2023/07/06 07:51:00;;;;;;;13.10;5.85;;;;;;;;;;4884697;29;20056;-75
2023/07/06 07:53:27;;;;;;;13.52;5.13;;;;;;;;;;4883305;29;20051;-75
2023/07/06 07:55:54;;;;;;;15.25;4.88;;;;;;;;;;4880949;29;20128;-75
2023/07/06 07:58:22;;;;;;;13.40;4.65;;;;;;;;;;4882226;29;20047;-75
2023/07/06 08:00:52;;;;;;;14.02;3.65;;;;;;;;;;4869888;29;20466;-76
2023/07/06 08:03:18;;;;;;;12.52;4.65;;;;;;;;;;4881913;29;20048;-75
2023/07/06 08:05:44;;;;;;;14.48;4.28;;;;;;;;;;4884468;29;22058;-75
2023/07/06 08:08:11;;;;;;;7.78;3.85;;;;;;;;;;4897910;29;20052;-75
2023/07/06 08:10:41;;;;;;;8.20;3.58;;;;;;;;;;4882205;29;20063;-76
2023/07/06 08:13:09;;;;;;;5.70;2.47;;;;;;;;;;4871139;29;20124;-75
2023/07/06 08:15:38;;;;;;;10.40;3.83;;;;;;;;;;4881834;29;20153;-76
2023/07/06 08:18:06;;;;;;;9.48;3.00;;;;;;;;;;4883249;29;20096;-75
2023/07/06 08:20:35;;;;;;;6.55;2.33;;;;;;;;;;4882049;29;20040;-76
2023/07/06 08:23:02;;;;;;;7.20;3.03;;;;;;;;;;4883210;29;20127;-75
2023/07/06 08:25:29;;;;;;;8.82;3.22;;;;;;;;;;4873453;29;20693;-75
2023/07/06 08:27:56;;;;;;;8.15;2.88;;;;;;;;;;4883081;29;20076;-75
2023/07/06 08:30:22;;;;;;;7.03;2.50;;;;;;;;;;4882524;29;20074;-75
2023/07/06 08:32:49;;;;;;;4.50;2.50;;;;;;;;;;4883989;29;20777;-76
2023/07/06 08:35:16;;;;;;;7.18;2.72;;;;;;;;;;4895980;29;20039;-76
2023/07/06 08:37:43;;;;;;;4.05;1.70;;;;;;;;;;4906604;29;21688;-75
2023/07/06 08:40:12;;;;;;;5.60;1.73;;;;;;;;;;4875235;29;20128;-77
2023/07/06 08:42:38;;;;;;;7.82;1.65;;;;;;;;;;4889626;29;20044;-76
2023/07/06 08:45:04;;;;;;;5.93;2.40;;;;;;;;;;4886963;29;20044;-77
2023/07/06 08:47:30;;;;;;;4.28;1.63;;;;;;;;;;4860225;29;20044;-71
2023/07/06 08:49:59;;;;;;;3.40;1.70;;;;;;;;;;4882850;29;20389;-71
2023/07/06 08:52:25;;;;;;;4.70;1.85;;;;;;;;;;4883499;29;20048;-70
2023/07/06 08:54:53;;;;;;;5.05;1.60;;;;;;;;;;4882115;29;20048;-72
2023/07/06 08:57:21;;;;;;;4.30;1.83;;;;;;;;;;4887273;29;20046;-71
2023/07/06 08:59:51;;;;;;;4.50;1.60;;;;;;;;;;4888535;29;20052;-71
2023/07/06 09:02:18;;;;;;;6.97;2.35;;;;;;;;;;4895205;29;20135;-71
2023/07/06 09:04:46;;;;;;;6.65;2.03;;;;;;;;;;4887588;29;20552;-72
2023/07/06 09:07:14;;;;;;;7.50;2.30;;;;;;;;;;4886590;29;20060;-71
2023/07/06 09:09:42;;;;;;;3.25;1.67;;;;;;;;;;4877366;29;20138;-71
2023/07/06 09:12:18;;;;;;;4.90;1.50;;;;;;;;;;4887195;29;20727;-71
2023/07/06 09:14:49;;;;;;;6.47;2.00;;;;;;;;;;4887079;29;20071;-71
2023/07/06 09:17:19;;;;;;;4.80;1.80;;;;;;;;;;4886431;29;20811;-71
2023/07/06 09:19:45;;;;;;;6.35;1.90;;;;;;;;;;4889546;29;20099;-70
2023/07/06 09:22:12;;;;;;;7.05;2.30;;;;;;;;;;4886906;29;20044;-71
2023/07/06 09:24:38;;;;;;;4.90;1.63;;;;;;;;;;4888712;29;20057;-71
2023/07/06 09:27:17;;;;;;;6.05;1.92;;;;;;;;;;4892595;29;20102;-71
2023/07/06 09:29:44;;;;;;;6.20;2.00;;;;;;;;;;4891577;29;20130;-71
2023/07/06 09:32:10;;;;;;;5.03;1.45;;;;;;;;;;4891055;29;20114;-71
2023/07/06 09:34:39;;;;;;;4.25;1.98;;;;;;;;;;4889648;29;20043;-71
2023/07/06 09:37:05;;;;;;;4.22;1.73;;;;;;;;;;4891053;29;20082;-72
2023/07/06 09:39:32;;;;;;;7.38;1.88;;;;;;;;;;4891658;29;20043;-71
2023/07/06 09:42:01;;;;;;;4.88;1.70;;;;;;;;;;4891736;29;20064;-71
2023/07/06 09:44:29;;;;;;;6.18;2.00;;;;;;;;;;4873441;29;20080;-72
2023/07/06 09:46:55;;;;;;;11.63;2.72;;;;;;;;;;4890712;29;20056;-71
2023/07/06 09:49:22;;;;;;;8.05;2.10;;;;;;;;;;4891916;29;20071;-71
2023/07/06 09:51:54;;;;;;;3.55;2.22;;;;;;;;;;4888311;29;20043;-71
2023/07/06 09:54:23;;;;;;;5.10;1.83;;;;;;;;;;4889996;29;20048;-71
2023/07/06 09:56:49;;;;;;;5.18;1.92;;;;;;;;;;4888000;29;20055;-70
2023/07/06 09:59:16;;;;;;;6.35;1.70;;;;;;;;;;4888099;29;20087;-70
2023/07/06 10:01:54;;;;;;;8.95;2.03;;;;;;;;;;4891260;29;20997;-71
2023/07/06 10:04:26;;;;;;;6.10;2.08;;;;;;;;;;4887598;29;20056;-70
2023/07/06 10:07:05;;;;;;;6.28;2.40;;;;;;;;;;4887897;29;20036;-70
2023/07/06 10:09:34;;;;;;;5.18;2.42;;;;;;;;;;4885559;29;22011;-70
2023/07/06 10:12:08;;;;;;;3.92;1.98;;;;;;;;;;4867123;29;20044;-71
2023/07/06 10:14:44;;;;;;;5.03;2.10;;;;;;;;;;4874048;29;20131;-71
2023/07/06 10:17:29;;;;;;;5.60;1.88;;;;;;;;;;4879688;29;20099;-69
2023/07/06 10:20:09;;;;;;;4.97;1.83;;;;;;;;;;4882578;29;21336;-71
2023/07/06 10:22:35;;;;;;;6.75;1.90;;;;;;;;;;4883808;29;20075;-71
2023/07/06 10:25:04;;;;;;;4.63;2.33;;;;;;;;;;4880152;29;20058;-71
2023/07/06 10:27:33;;;;;;;12.43;2.13;;;;;;;;;;4880201;29;20135;-71
2023/07/06 10:30:02;;;;;;;2.47;1.48;;;;;;;;;;4881209;29;20555;-71
2023/07/06 10:32:30;;;;;;;3.08;1.60;;;;;;;;;;4883167;29;20139;-71
2023/07/06 10:35:03;;;;;;;6.72;1.50;;;;;;;;;;4889519;29;20056;-71
2023/07/06 10:37:31;;;;;;;5.18;2.10;;;;;;;;;;4874685;29;20044;-71
2023/07/06 10:40:10;;;;;;;3.47;1.85;;;;;;;;;;4885660;29;20044;-72
2023/07/06 10:42:41;;;;;;;4.78;2.25;;;;;;;;;;4885791;29;21943;-71
2023/07/06 10:45:24;;;;;;;5.53;1.60;;;;;;;;;;4899458;29;20044;-81
2023/07/06 10:47:50;;;;;;;4.82;2.13;;;;;;;;;;4889542;29;20501;-79
2023/07/06 10:50:25;;;;;;;2.78;1.45;;;;;;;;;;4882792;29;20064;-81
2023/07/06 10:53:00;;;;;;;5.10;1.85;;;;;;;;;;4880276;29;20052;-80
2023/07/06 10:55:35;;;;;;;5.05;1.95;;;;;;;;;;4875464;29;21786;-79
2023/07/06 10:58:21;;;;;;;4.80;1.90;;;;;;;;;;4892371;29;20180;-78
2023/07/06 11:00:47;;;;;;;7.07;1.95;;;;;;;;;;4891667;29;21885;-78
2023/07/06 11:03:20;;;;;;;3.60;1.73;;;;;;;;;;4878354;29;20048;-78
2023/07/06 11:05:58;;;;;;;5.03;1.93;;;;;;;;;;4881708;29;20089;-78
2023/07/06 11:08:44;;;;;;;4.63;1.90;;;;;;;;;;4910463;29;20051;-79
2023/07/06 11:11:18;;;;;;;2.65;1.67;;;;;;;;;;4882812;29;20449;-78
2023/07/06 11:13:51;;;;;;;6.15;2.22;;;;;;;;;;4883764;29;20045;-78
2023/07/06 11:16:23;;;;;;;3.72;1.75;;;;;;;;;;4893059;29;20488;-78
2023/07/06 11:18:51;;;;;;;4.88;2.10;;;;;;;;;;4881473;29;20044;-78
2023/07/06 11:21:19;;;;;;;5.35;2.10;;;;;;;;;;4901301;29;20624;-78
2023/07/06 11:23:46;;;;;;;3.85;1.60;;;;;;;;;;4884642;29;20089;-78
2023/07/06 11:26:25;;;;;;;4.10;1.75;;;;;;;;;;4896055;29;20048;-79
2023/07/06 11:28:53;;;;;;;4.97;1.50;;;;;;;;;;4881068;29;20040;-78
2023/07/06 11:31:43;;;;;;;5.10;1.73;;;;;;;;;;4889843;29;20493;-78
2023/07/06 11:34:15;;;;;;;7.20;1.60;;;;;;;;;;4880915;29;20041;-80
2023/07/06 11:36:49;;;;;;;6.47;1.95;;;;;;;;;;4893943;29;20128;-79
2023/07/06 11:39:24;;;;;;;3.17;1.50;;;;;;;;;;4888651;29;20067;-79
2023/07/06 11:41:53;;;;;;;4.75;1.70;;;;;;;;;;4893818;29;20393;-79
2023/07/06 11:44:24;;;;;;;4.85;1.55;;;;;;;;;;4870511;29;20072;-79
2023/07/06 11:47:30;;;;;;;3.92;1.50;;;22.20;99.90;;;;;;4880927;29;20504;-78
2023/07/06 11:49:59;;;;;;;4.57;1.60;;;;;;;;;;4896569;29;20056;-79
2023/07/06 11:52:27;;;;;;;4.07;1.60;;;;;;;;;;4875926;29;20044;-79
2023/07/06 11:55:28;;;;;;;6.15;1.85;;;;;;;;;;4888442;29;20132;-79
2023/07/06 11:58:04;;;;;;;4.95;1.20;;;;;;;;;;4888330;29;20386;-79
2023/07/06 12:03:00;;;;;;;6.45;1.50;;;;;;;;;;4887899;29;20050;-79
2023/07/06 12:05:29;;;;;;;6.18;1.25;;;;;;;;;;4886951;29;20048;-80
2023/07/06 12:08:00;;;;;;;3.92;1.60;;;;;;;;;;4885978;29;20075;-79
2023/07/06 12:10:27;;;;;;;6.78;1.70;;;;;;;;;;4895871;29;20056;-79
2023/07/06 12:12:55;;;;;;;3.58;1.35;;;;;;;;;;4886479;29;20418;-78
2023/07/06 12:15:21;;;;;;;1.85;1.30;;;;;;;;;;4888561;29;20080;-79
2023/07/06 12:17:58;;;;;;;2.97;1.40;;;;;;;;;;4879358;29;20052;-79
2023/07/06 12:20:29;;;;;;;3.60;2.00;;;;;;;;;;4888800;29;20172;-79
2023/07/06 12:22:59;;;;;;;3.53;1.73;;;;;;;;;;4873741;29;20063;-79
2023/07/06 12:25:30;;;;;;;6.63;1.80;;;;;;;;;;4903891;29;20099;-80
2023/07/06 12:28:00;;;;;;;5.47;1.50;;;;;;;;;;4890721;29;20115;-80
2023/07/06 12:30:33;;;;;;;3.20;1.63;;;;;;;;;;4895243;29;20067;-79
2023/07/06 12:32:59;;;;;;;;;;;;;;;;;;4883800;29;20119;-80
2023/07/06 12:35:26;;;;;;;4.10;1.30;;;;;;;;;;4902741;29;19920;-80
2023/07/06 12:37:55;;;;;;;3.72;1.38;;;;;;;;;;4895445;29;20059;-80
2023/07/06 12:40:25;;;;;;;3.47;1.40;;;;;;;;;;4897167;29;20055;-80
2023/07/06 12:42:52;;;;;;;3.13;1.60;;;;;;;;;;4878610;29;20048;-78
2023/07/06 12:45:21;;;;;;;5.93;1.60;;;;;;;;;;4890686;29;20801;-80
2023/07/06 12:47:55;;;;;;;3.65;1.70;;;;;;;;;;4891348;29;20048;-80
2023/07/06 12:50:26;;;;;;;3.22;1.60;;;;;;;;;;4906179;29;20071;-80
2023/07/06 12:53:02;;;;;;;4.63;1.70;;;;;;;;;;4890993;29;20051;-80
2023/07/06 12:55:31;;;;;;;3.35;1.92;;;;;;;;;;4871658;29;20049;-81
2023/07/06 12:57:58;;;;;;;4.30;1.85;;;;;;;;;;4889813;29;20059;-79
2023/07/06 13:00:25;;;;;;;3.85;1.48;;;;;;;;;;4873233;29;20063;-79
2023/07/06 13:02:56;;;;;;;3.72;1.90;;;;;;;;;;4890033;29;20056;-80
2023/07/06 13:05:22;;;;;;;2.90;1.17;;;;;;;;;;4872588;29;21023;-79
2023/07/06 13:07:52;;;;;;;1.80;1.23;;;;;;;;;;4872924;29;20041;-80
2023/07/06 13:10:29;;;;;;;2.40;1.50;;;;;;;;;;4891343;29;20047;-79
2023/07/06 13:12:56;;;;;;;2.95;1.30;;;;;;;;;;4876790;29;20048;-81
2023/07/06 13:15:37;;;;;;;3.00;1.00;;;;;;;;;;4891894;29;20055;-78
2023/07/06 13:18:06;;;;;;;3.10;1.20;;;;;;;;;;4868347;29;20163;-78
2023/07/06 13:20:33;;;;;;;3.17;1.02;;;;;;;;;;4889642;29;20055;-78
2023/07/06 13:22:59;;;;;;;3.08;1.15;;;;;;;;;;4886806;29;20048;-77
2023/07/06 13:25:25;;;;;;;4.55;1.33;;;;;;;;;;4886312;29;20060;-78
2023/07/06 13:27:51;;;;;;;3.78;1.58;;;;;;;;;;4888578;29;20068;-77
2023/07/06 13:30:21;;;;;;;3.20;1.30;;;;;;;;;;4886904;29;20057;-77
2023/07/06 13:32:47;;;;;;;3.47;1.20;;;;;;;;;;4887321;29;20429;-77
2023/07/06 13:35:13;;;;;;;3.92;1.13;;;;;;;;;;4888735;29;20075;-77
2023/07/06 13:37:42;;;;;;;2.65;1.17;;;;;;;;;;4877489;29;20040;-80
2023/07/06 13:40:20;;;;;;;6.72;1.17;;;;;;;;;;4889620;29;20051;-80
2023/07/06 13:42:47;;;;;;;2.63;1.13;;;;;;;;;;4892838;29;20044;-80
2023/07/06 13:45:15;;;;;;;3.65;1.60;;;;;;;;;;4875724;29;20051;-79
2023/07/06 13:47:42;;;;;;;5.22;1.48;;;;;;;;;;4878570;29;20100;-79
2023/07/06 13:50:11;;;;;;;3.90;1.40;;;;;;;;;;4882199;29;20036;-79
2023/07/06 13:52:38;;;;;;;5.72;1.20;;;;;;;;;;4880516;29;20040;-81
2023/07/06 13:55:14;;;;;;;7.72;1.17;;;;;;;;;;4893895;29;20049;-79
2023/07/06 13:57:41;;;;;;;2.08;1.27;;;;;;;;;;4891194;29;20988;-79
2023/07/06 14:00:10;;;;;;;4.47;1.52;;;;;;;;;;4891201;29;20063;-79
2023/07/06 14:02:37;;;;;;;5.65;1.85;;;;;;;;;;4871337;29;20051;-81
2023/07/06 14:05:04;;;;;;;2.83;1.38;;;;;;;;;;4876652;29;20048;-81
2023/07/06 14:07:31;;;;;;;3.83;1.17;;;;;;;;;;4889452;29;20048;-80
2023/07/06 14:09:57;;;;;;;2.88;1.30;;;;;;;;;;4871592;29;20052;-80
2023/07/06 14:12:23;;;;;;;4.40;1.27;;;;;;;;;;4882184;29;20059;-81
2023/07/06 14:14:49;;;;;;;3.38;1.30;;;;;;;;;;4867334;29;20044;-81
2023/07/06 14:17:16;;;;;;;3.92;1.42;;;;;;;;;;4895496;29;20045;-80
2023/07/06 14:19:42;;;;;;;4.47;1.45;;;;;;;;;;4885180;29;20052;-79
2023/07/06 14:22:08;;;;;;;5.15;1.30;;;;;;;;;;4883361;29;20062;-81
2023/07/06 14:24:34;;;;;;;3.80;1.30;;;;;;;;;;4892767;29;20049;-81
2023/07/06 14:27:00;;;;;;;5.22;1.20;;;;;;;;;;4893951;29;20044;-81
2023/07/06 14:29:27;;;;;;;3.03;1.20;;;;;;;;;;4893368;29;20500;-81
2023/07/06 14:31:54;;;;;;;8.52;1.55;;;;;;;;;;4911941;29;20068;-81
2023/07/06 14:34:22;;;;;;;4.18;1.17;;;;;;;;;;4886295;29;20128;-80
2023/07/06 14:36:48;;;;;;;4.50;1.20;;;;;;;;;;4876820;29;20080;-81
2023/07/06 14:39:17;;;;;;;1.88;1.02;;;;;;;;;;4877210;29;20044;-81
2023/07/06 14:41:43;;;;;;;4.25;1.10;;;;;;;;;;4893649;29;21192;-80
2023/07/06 14:44:10;;;;;;;7.03;1.52;;;;;;;;;;4878402;29;20041;-80